createdAt,value
2023-02-06T00:00:44.687Z,20.69
2023-02-06T00:01:44.736Z,20.71
2023-02-06T00:02:44.772Z,20.70
2023-02-06T00:03:44.716Z,20.71
2023-02-06T00:04:44.739Z,20.70
2023-02-06T00:05:44.797Z,20.74
2023-02-06T00:06:44.828Z,20.72
2023-02-06T00:07:44.819Z,20.73
2023-02-06T00:08:44.834Z,20.73
2023-02-06T00:09:44.841Z,20.73
2023-02-06T00:10:44.840Z,20.72
2023-02-06T00:11:44.889Z,20.71
2023-02-06T00:12:44.891Z,20.73
2023-02-06T00:13:44.919Z,20.74
2023-02-06T00:14:44.904Z,20.72
2023-02-06T00:15:44.977Z,20.71
2023-02-06T00:16:44.945Z,20.67
2023-02-06T00:17:44.988Z,20.68
2023-02-06T00:18:44.994Z,20.67
2023-02-06T00:19:44.986Z,20.66
2023-02-06T00:20:44.998Z,20.65
2023-02-06T00:21:44.968Z,20.64
2023-02-06T00:22:45.016Z,20.63
2023-02-06T00:23:44.954Z,20.62
2023-02-06T00:24:44.971Z,20.58
2023-02-06T00:25:44.983Z,20.56
2023-02-06T00:26:44.990Z,20.56
2023-02-06T00:27:45.023Z,20.53
2023-02-06T00:28:45.006Z,20.50
2023-02-06T00:29:45.006Z,20.48
2023-02-06T00:30:45.054Z,20.47
2023-02-06T00:31:45.075Z,20.47
2023-02-06T00:32:45.140Z,20.44
2023-02-06T00:33:45.163Z,20.44
2023-02-06T00:34:45.226Z,20.42
2023-02-06T00:35:45.309Z,20.43
2023-02-06T00:36:45.372Z,20.42
2023-02-06T00:37:45.436Z,20.39
2023-02-06T00:38:45.505Z,20.37
2023-02-06T00:39:45.552Z,20.36
2023-02-06T00:40:45.609Z,20.34
2023-02-06T00:41:45.644Z,20.32
2023-02-06T00:42:45.720Z,20.30
2023-02-06T00:43:45.745Z,20.28
2023-02-06T00:44:45.836Z,20.25
2023-02-06T00:45:45.881Z,20.24
2023-02-06T00:46:46.023Z,20.24
2023-02-06T00:47:46.003Z,20.23
2023-02-06T00:48:46.019Z,20.21
2023-02-06T00:49:46.086Z,20.18
2023-02-06T00:50:46.137Z,20.17
2023-02-06T00:51:46.195Z,20.19
2023-02-06T00:52:46.278Z,20.17
2023-02-06T00:53:46.327Z,20.16
2023-02-06T00:54:46.360Z,20.16
2023-02-06T00:55:46.425Z,20.14
2023-02-06T00:56:46.489Z,20.17
2023-02-06T00:57:46.521Z,20.13
2023-02-06T00:58:46.576Z,20.13
2023-02-06T00:59:46.625Z,20.13
2023-02-06T01:00:46.694Z,20.13
2023-02-06T01:01:46.769Z,20.13
2023-02-06T01:02:46.821Z,20.11
2023-02-06T01:03:46.839Z,20.12
2023-02-06T01:04:46.901Z,20.11
2023-02-06T01:05:46.950Z,20.10
2023-02-06T01:06:47.004Z,20.10
2023-02-06T01:07:47.270Z,20.11
2023-02-06T01:08:47.426Z,20.10
2023-02-06T01:09:47.296Z,20.10
2023-02-06T01:10:47.103Z,20.10
2023-02-06T01:11:47.135Z,20.10
2023-02-06T01:12:47.161Z,20.08
2023-02-06T01:13:47.188Z,20.08
2023-02-06T01:14:47.211Z,20.10
2023-02-06T01:15:48.967Z,20.09
2023-02-06T01:16:47.248Z,20.10
2023-02-06T01:17:47.267Z,20.08
2023-02-06T01:18:47.230Z,20.10
2023-02-06T01:19:47.240Z,20.07
2023-02-06T01:20:47.237Z,20.08
2023-02-06T01:21:47.215Z,20.08
2023-02-06T01:22:47.228Z,20.08
2023-02-06T01:23:47.281Z,20.07
2023-02-06T01:24:47.243Z,20.08
2023-02-06T01:25:47.193Z,20.08
2023-02-06T01:26:47.190Z,20.07
2023-02-06T01:27:47.196Z,20.07
2023-02-06T01:28:47.211Z,20.07
2023-02-06T01:29:47.166Z,20.06
2023-02-06T01:30:47.188Z,20.06
2023-02-06T01:31:47.176Z,20.07
2023-02-06T01:32:47.141Z,20.08
2023-02-06T01:33:47.140Z,20.06
2023-02-06T01:34:47.145Z,20.06
2023-02-06T01:35:47.120Z,20.06
2023-02-06T01:36:47.152Z,20.08
2023-02-06T01:37:47.175Z,20.05
2023-02-06T01:38:47.128Z,20.06
2023-02-06T01:39:47.103Z,20.06
2023-02-06T01:40:47.089Z,20.06
2023-02-06T01:41:47.102Z,20.06
2023-02-06T01:42:47.083Z,20.06
2023-02-06T01:43:47.080Z,20.06
2023-02-06T01:44:47.078Z,20.04
2023-02-06T01:45:47.078Z,20.03
2023-02-06T01:46:47.154Z,20.04
2023-02-06T01:47:47.075Z,20.04
2023-02-06T01:48:47.053Z,20.04
2023-02-06T01:49:47.037Z,20.04
2023-02-06T01:50:47.016Z,20.05
2023-02-06T01:51:47.031Z,20.04
2023-02-06T01:52:47.021Z,20.06
2023-02-06T01:53:47.017Z,20.06
2023-02-06T01:54:47.018Z,20.05
2023-02-06T01:55:46.986Z,20.03
2023-02-06T01:56:46.989Z,20.04
2023-02-06T01:57:46.995Z,20.03
2023-02-06T01:58:47.104Z,20.04
2023-02-06T01:59:46.982Z,20.03
2023-02-06T02:00:46.967Z,20.03
2023-02-06T02:01:46.968Z,20.02
2023-02-06T02:02:46.946Z,20.01
2023-02-06T02:03:46.945Z,20.02
2023-02-06T02:04:46.938Z,20.03
2023-02-06T02:05:46.948Z,20.02
2023-02-06T02:06:46.902Z,19.99
2023-02-06T02:07:46.932Z,20.01
2023-02-06T02:08:46.922Z,20.00
2023-02-06T02:09:46.905Z,20.02
2023-02-06T02:10:46.879Z,20.00
2023-02-06T02:11:46.902Z,20.03
2023-02-06T02:12:46.879Z,20.01
2023-02-06T02:13:46.865Z,20.02
2023-02-06T02:14:46.884Z,20.00
2023-02-06T02:15:46.891Z,20.01
2023-02-06T02:16:46.862Z,20.00
2023-02-06T02:17:46.840Z,20.00
2023-02-06T02:18:46.827Z,20.01
2023-02-06T02:19:46.829Z,20.00
2023-02-06T02:20:46.816Z,20.00
2023-02-06T02:21:46.796Z,19.99
2023-02-06T02:22:46.831Z,20.00
2023-02-06T02:23:46.850Z,19.99
2023-02-06T02:24:46.817Z,19.99
2023-02-06T02:25:46.825Z,19.98
2023-02-06T02:26:46.786Z,19.99
2023-02-06T02:27:46.838Z,19.98
2023-02-06T02:28:46.772Z,19.98
2023-02-06T02:29:46.786Z,19.98
2023-02-06T02:30:46.776Z,19.98
2023-02-06T02:31:46.848Z,20.00
2023-02-06T02:32:46.782Z,19.99
2023-02-06T02:33:46.807Z,19.99
2023-02-06T02:34:46.840Z,20.00
2023-02-06T02:35:46.850Z,20.00
2023-02-06T02:36:46.848Z,19.99
2023-02-06T02:37:46.860Z,20.00
2023-02-06T02:38:46.843Z,20.01
2023-02-06T02:39:46.871Z,20.00
2023-02-06T02:40:46.881Z,20.00
2023-02-06T02:41:46.901Z,19.98
2023-02-06T02:42:46.888Z,19.99
2023-02-06T02:43:46.901Z,19.98
2023-02-06T02:44:46.920Z,19.99
2023-02-06T02:46:46.931Z,20.00
2023-02-06T02:47:46.967Z,19.99
2023-02-06T02:54:47.005Z,20.01
2023-02-06T03:01:47.022Z,20.00
2023-02-06T03:11:47.086Z,20.01
2023-02-06T03:15:47.123Z,20.02
2023-02-06T03:24:47.196Z,20.00
2023-02-06T03:26:47.193Z,20.03
2023-02-06T03:41:47.237Z,20.05
2023-02-06T03:42:47.212Z,20.01
2023-02-06T03:43:47.233Z,20.03
2023-02-06T03:44:47.261Z,20.03
2023-02-06T03:45:47.247Z,20.02
2023-02-06T03:46:47.244Z,20.05
2023-02-06T03:47:47.234Z,20.04
2023-02-06T03:48:47.228Z,20.03
2023-02-06T03:49:47.249Z,20.05
2023-02-06T03:50:47.240Z,20.02
2023-02-06T03:51:47.233Z,20.04
2023-02-06T03:52:47.230Z,20.04
2023-02-06T03:53:47.243Z,20.05
2023-02-06T03:54:47.276Z,20.04
2023-02-06T03:55:47.242Z,20.03
2023-02-06T03:56:47.241Z,20.03
2023-02-06T03:57:47.225Z,20.03
2023-02-06T03:58:47.215Z,20.01
2023-02-06T03:59:47.270Z,20.02
2023-02-06T04:00:47.203Z,20.01
2023-02-06T04:01:47.234Z,20.01
2023-02-06T04:02:47.241Z,20.02
2023-02-06T04:03:47.231Z,20.00
2023-02-06T04:04:47.225Z,20.00
2023-02-06T04:05:48.176Z,20.01
2023-02-06T04:06:47.228Z,20.02
2023-02-06T04:07:47.213Z,20.01
2023-02-06T04:08:47.219Z,19.99
2023-02-06T04:09:47.238Z,20.00
2023-02-06T04:10:47.217Z,19.98
2023-02-06T04:11:47.196Z,20.00
2023-02-06T04:12:47.188Z,19.99
2023-02-06T04:13:47.196Z,20.00
2023-02-06T04:14:47.223Z,19.98
2023-02-06T04:15:47.193Z,20.00
2023-02-06T04:16:47.218Z,20.00
2023-02-06T04:17:59.547Z,20.00
2023-02-06T04:18:48.213Z,20.00
2023-02-06T04:19:47.204Z,20.00
2023-02-06T04:20:47.146Z,19.99
2023-02-06T04:21:47.168Z,19.99
2023-02-06T04:22:47.165Z,19.98
2023-02-06T04:23:47.135Z,19.97
2023-02-06T04:24:47.151Z,19.98
2023-02-06T04:25:47.137Z,19.97
2023-02-06T04:26:47.117Z,19.98
2023-02-06T04:27:47.150Z,19.99
2023-02-06T04:28:47.101Z,19.97
2023-02-06T04:29:47.104Z,19.97
2023-02-06T04:30:47.152Z,19.99
2023-02-06T04:31:47.085Z,19.99
2023-02-06T04:32:47.059Z,20.00
2023-02-06T04:33:47.066Z,20.01
2023-02-06T04:34:47.077Z,20.02
2023-02-06T04:35:47.044Z,20.01
2023-02-06T04:36:47.059Z,20.02
2023-02-06T04:37:47.143Z,20.01
2023-02-06T04:38:47.026Z,20.02
2023-02-06T04:39:47.053Z,20.04
2023-02-06T04:40:47.030Z,20.03
2023-02-06T04:41:47.027Z,20.04
2023-02-06T04:42:47.003Z,20.04
2023-02-06T04:43:47.010Z,20.06
2023-02-06T04:44:46.979Z,20.04
2023-02-06T04:45:47.026Z,20.06
2023-02-06T04:46:46.982Z,20.04
2023-02-06T04:47:46.993Z,20.06
2023-02-06T04:48:47.001Z,20.07
2023-02-06T04:49:46.953Z,20.08
2023-02-06T04:50:46.955Z,20.09
2023-02-06T04:51:46.922Z,20.07
2023-02-06T04:52:46.931Z,20.08
2023-02-06T04:53:46.944Z,20.09
2023-02-06T04:54:46.934Z,20.10
2023-02-06T04:55:46.914Z,20.11
2023-02-06T04:56:46.908Z,20.11
2023-02-06T04:57:46.882Z,20.12
2023-02-06T04:58:46.894Z,20.14
2023-02-06T04:59:46.885Z,20.14
2023-02-06T05:00:46.875Z,20.14
2023-02-06T05:01:46.926Z,20.15
2023-02-06T05:02:46.892Z,20.14
2023-02-06T05:03:46.857Z,20.14
2023-02-06T05:04:46.872Z,20.16
2023-02-06T05:05:46.857Z,20.18
2023-02-06T05:06:46.897Z,20.18
2023-02-06T05:07:46.866Z,20.20
2023-02-06T05:08:46.862Z,20.20
2023-02-06T05:09:46.826Z,20.21
2023-02-06T05:10:46.804Z,20.22
2023-02-06T05:11:46.791Z,20.23
2023-02-06T05:12:46.802Z,20.23
2023-02-06T05:13:46.819Z,20.23
2023-02-06T05:14:46.783Z,20.27
2023-02-06T05:15:46.883Z,20.26
2023-02-06T05:16:46.837Z,20.26
2023-02-06T05:17:46.841Z,20.27
2023-02-06T05:18:46.850Z,20.27
2023-02-06T05:19:46.899Z,20.28
2023-02-06T05:20:46.892Z,20.29
2023-02-06T05:21:46.938Z,20.31
2023-02-06T05:22:46.958Z,20.32
2023-02-06T05:23:46.966Z,20.31
2023-02-06T05:24:46.998Z,20.30
2023-02-06T05:25:47.045Z,20.30
2023-02-06T05:26:47.048Z,20.32
2023-02-06T05:27:47.166Z,20.32
2023-02-06T05:28:47.093Z,20.33
2023-02-06T05:29:47.107Z,20.33
2023-02-06T05:30:47.158Z,20.33
2023-02-06T05:31:47.169Z,20.34
2023-02-06T05:32:47.163Z,20.34
2023-02-06T05:33:47.187Z,20.33
2023-02-06T05:34:47.215Z,20.34
2023-02-06T05:35:47.251Z,20.34
2023-02-06T05:36:47.298Z,20.33
2023-02-06T05:37:47.287Z,20.36
2023-02-06T05:38:47.327Z,20.36
2023-02-06T05:39:47.346Z,20.34
2023-02-06T05:40:47.340Z,20.36
2023-02-06T05:41:47.446Z,20.36
2023-02-06T05:42:47.396Z,20.37
2023-02-06T05:43:47.452Z,20.37
2023-02-06T05:44:47.478Z,20.38
2023-02-06T05:46:47.534Z,20.37
2023-02-06T05:47:47.538Z,20.37
2023-02-06T05:48:47.569Z,20.38
2023-02-06T05:49:47.599Z,20.36
2023-02-06T05:50:47.652Z,20.36
2023-02-06T05:51:47.674Z,20.36
2023-02-06T05:52:47.705Z,20.36
2023-02-06T05:53:47.737Z,20.38
2023-02-06T05:54:47.757Z,20.38
2023-02-06T05:55:47.789Z,20.37
2023-02-06T05:56:47.808Z,20.37
2023-02-06T05:58:47.873Z,20.36
2023-02-06T05:59:47.887Z,20.35
2023-02-06T06:00:54.972Z,20.38
2023-02-06T06:01:47.943Z,20.37
2023-02-06T06:02:47.935Z,20.36
2023-02-06T06:03:47.938Z,20.36
2023-02-06T06:04:47.952Z,20.37
2023-02-06T06:05:48.714Z,20.35
2023-02-06T06:06:47.873Z,20.36
2023-02-06T06:07:47.878Z,20.37
2023-02-06T06:08:47.870Z,20.35
2023-02-06T06:09:47.874Z,20.38
2023-02-06T06:10:47.850Z,20.35
2023-02-06T06:11:47.869Z,20.36
2023-02-06T06:12:47.841Z,20.39
2023-02-06T06:13:47.849Z,20.36
2023-02-06T06:14:47.817Z,20.37
2023-02-06T06:15:47.864Z,20.37
2023-02-06T06:16:47.799Z,20.38
2023-02-06T06:17:47.793Z,20.39
2023-02-06T06:18:47.772Z,20.36
2023-02-06T06:19:47.794Z,20.37
2023-02-06T06:20:47.781Z,20.36
2023-02-06T06:21:47.743Z,20.33
2023-02-06T06:45:55.440Z,24.89
2023-02-06T06:46:47.809Z,24.88
2023-02-06T06:47:47.868Z,25.74
2023-02-06T06:48:48.791Z,26.25
2023-02-06T06:49:47.833Z,25.85
2023-02-06T06:50:47.818Z,25.45
2023-02-06T06:51:47.809Z,25.56
2023-02-06T06:52:47.809Z,25.74
2023-02-06T06:53:47.802Z,25.60
2023-02-06T06:54:47.786Z,25.53
2023-02-06T06:55:47.777Z,25.56
2023-02-06T06:56:47.825Z,25.43
2023-02-06T06:57:47.793Z,25.70
2023-02-06T06:58:47.751Z,25.74
2023-02-06T06:59:47.774Z,25.74
2023-02-06T07:00:47.788Z,25.80
2023-02-06T07:01:47.749Z,25.93
2023-02-06T07:02:47.749Z,25.89
2023-02-06T07:03:47.726Z,25.93
2023-02-06T07:04:47.728Z,25.99
2023-02-06T07:05:47.716Z,26.08
2023-02-06T07:06:47.722Z,26.20
2023-02-06T07:07:47.690Z,26.11
2023-02-06T07:08:47.751Z,26.16
2023-02-06T07:09:48.028Z,26.17
2023-02-06T07:10:47.823Z,26.23
2023-02-06T07:11:47.849Z,26.19
2023-02-06T07:12:47.886Z,26.50
2023-02-06T07:13:47.970Z,26.40
2023-02-06T07:14:48.018Z,26.52
2023-02-06T07:15:48.006Z,26.54
2023-02-06T07:16:48.046Z,26.63
2023-02-06T07:17:48.113Z,26.64
2023-02-06T07:18:48.134Z,26.77
2023-02-06T07:19:48.163Z,26.71
2023-02-06T07:20:48.189Z,26.89
2023-02-06T07:21:48.189Z,26.86
2023-02-06T07:22:48.221Z,26.91
2023-02-06T07:23:48.260Z,27.01
2023-02-06T07:24:48.252Z,27.11
2023-02-06T07:26:48.271Z,27.24
2023-02-06T07:27:48.334Z,27.26
2023-02-06T07:28:49.388Z,27.33
2023-02-06T07:29:48.322Z,27.47
2023-02-06T07:30:48.352Z,27.44
2023-02-06T07:31:48.393Z,27.55
2023-02-06T07:32:48.358Z,27.67
2023-02-06T07:33:48.415Z,27.72
2023-02-06T07:34:48.379Z,27.81
2023-02-06T07:35:48.432Z,27.81
2023-02-06T07:36:48.435Z,27.83
2023-02-06T07:38:48.462Z,27.72
2023-02-06T07:39:48.482Z,27.75
2023-02-06T07:40:48.543Z,27.74
2023-02-06T07:41:48.570Z,27.64
2023-02-06T07:42:48.601Z,27.50
2023-02-06T07:43:48.621Z,27.48
2023-02-06T07:44:48.622Z,27.58
2023-02-06T07:45:48.728Z,27.71
2023-02-06T07:46:48.680Z,27.67
2023-02-06T07:47:48.827Z,27.76
2023-02-06T07:53:48.854Z,28.05
2023-02-06T08:04:48.964Z,29.28
2023-02-06T08:06:48.986Z,28.99
2023-02-06T08:11:48.991Z,29.23
2023-02-06T09:20:51.021Z,26.63
2023-02-06T09:21:51.062Z,26.61
2023-02-06T09:22:51.105Z,26.59
2023-02-06T09:23:51.115Z,26.63
2023-02-06T09:24:51.178Z,26.64
2023-02-06T09:25:51.151Z,26.77
2023-02-06T09:26:59.349Z,26.76
2023-02-06T09:27:52.201Z,26.77
2023-02-06T09:28:51.203Z,26.81
2023-02-06T09:29:51.174Z,26.83
2023-02-06T09:30:51.409Z,26.78
2023-02-06T09:31:51.151Z,26.85
2023-02-06T09:32:51.154Z,26.95
2023-02-06T09:33:51.204Z,24.22
2023-02-06T09:34:51.131Z,23.05
2023-02-06T09:35:51.200Z,23.59
2023-02-06T09:36:51.140Z,24.61
2023-02-06T09:37:51.120Z,25.67
2023-02-06T09:38:51.090Z,26.42
2023-02-06T09:39:51.109Z,27.30
2023-02-06T09:40:51.334Z,27.79
2023-02-06T09:41:51.144Z,28.84
2023-02-06T09:42:51.214Z,30.43
2023-02-06T09:43:51.398Z,30.85
2023-02-06T09:44:51.237Z,31.24
2023-02-06T09:45:51.308Z,31.64
2023-02-06T09:46:51.315Z,31.67
2023-02-06T09:47:51.369Z,31.65
2023-02-06T09:48:51.400Z,31.13
2023-02-06T09:49:51.415Z,32.42
2023-02-06T09:50:51.823Z,32.41
2023-02-06T09:51:51.499Z,31.79
2023-02-06T09:52:51.497Z,30.28
2023-02-06T09:53:51.501Z,28.24
2023-02-06T09:54:51.535Z,27.81
2023-02-06T09:55:51.818Z,27.38
2023-02-06T09:56:51.594Z,26.99
2023-02-06T09:57:51.692Z,26.85
2023-02-06T09:58:51.733Z,26.69
2023-02-06T09:59:51.823Z,26.77
2023-02-06T10:00:52.422Z,25.95
2023-02-06T10:01:52.212Z,26.53
2023-02-06T10:02:51.905Z,26.96
2023-02-06T10:03:51.967Z,27.00
2023-02-06T10:04:51.955Z,27.33
2023-02-06T10:05:51.963Z,27.42
2023-02-06T10:06:51.932Z,27.38
2023-02-06T10:07:52.010Z,27.21
2023-02-06T10:08:52.125Z,27.18
2023-02-06T10:09:52.111Z,27.23
2023-02-06T10:10:52.096Z,27.04
2023-02-06T10:11:52.119Z,27.03
2023-02-06T10:12:52.176Z,27.09
2023-02-06T10:13:52.198Z,27.13
2023-02-06T10:14:52.260Z,27.25
2023-02-06T10:15:52.378Z,27.17
2023-02-06T10:16:52.285Z,27.23
2023-02-06T10:17:52.317Z,27.23
2023-02-06T10:18:52.300Z,27.22
2023-02-06T10:19:52.359Z,27.20
2023-02-06T10:20:52.845Z,27.16
2023-02-06T10:22:52.423Z,26.84
2023-02-06T10:23:52.436Z,26.74
2023-02-06T10:24:52.451Z,26.70
2023-02-06T10:25:52.871Z,26.29
2023-02-06T10:26:52.522Z,26.41
2023-02-06T10:27:52.580Z,26.47
2023-02-06T10:28:52.621Z,25.91
2023-02-06T10:29:52.624Z,26.18
2023-02-06T10:30:52.688Z,26.06
2023-02-06T10:31:52.738Z,26.17
2023-02-06T10:32:52.762Z,26.21
2023-02-06T10:33:52.761Z,26.23
2023-02-06T10:34:52.814Z,26.05
2023-02-06T10:35:52.926Z,25.98
2023-02-06T10:36:52.887Z,25.94
2023-02-06T10:37:52.938Z,25.92
2023-02-06T10:38:52.963Z,25.85
2023-02-06T10:39:53.020Z,25.76
2023-02-06T10:40:53.020Z,25.20
2023-02-06T10:41:53.365Z,25.36
2023-02-06T10:42:53.090Z,25.30
2023-02-06T10:43:53.061Z,25.54
2023-02-06T10:44:53.097Z,25.65
2023-02-06T10:45:53.141Z,25.53
2023-02-06T10:46:53.429Z,25.14
2023-02-06T10:47:53.172Z,25.28
2023-02-06T10:48:54.389Z,25.25
2023-02-06T10:49:53.192Z,25.27
2023-02-06T10:50:53.156Z,25.59
2023-02-06T10:51:53.371Z,25.73
2023-02-06T10:52:53.272Z,25.96
2023-02-06T10:53:53.394Z,26.07
2023-02-06T10:54:53.425Z,26.09
2023-02-06T10:55:53.888Z,26.29
2023-02-06T10:56:53.530Z,26.39
2023-02-06T10:57:53.588Z,26.47
2023-02-06T10:58:53.521Z,26.64
2023-02-06T10:59:54.026Z,26.82
2023-02-06T11:00:53.652Z,26.91
2023-02-06T11:01:53.587Z,27.01
2023-02-06T11:03:06.300Z,27.30
2023-02-06T11:03:54.627Z,27.37
2023-02-06T11:04:53.618Z,27.51
2023-02-06T11:05:53.604Z,27.39
2023-02-06T11:06:53.620Z,27.51
2023-02-06T11:07:53.585Z,27.57
2023-02-06T11:08:53.587Z,27.54
2023-02-06T11:09:53.590Z,27.78
2023-02-06T11:10:53.569Z,27.94
2023-02-06T11:11:53.855Z,27.92
2023-02-06T11:12:53.570Z,27.92
2023-02-06T11:13:53.510Z,28.01
2023-02-06T11:14:53.558Z,28.13
2023-02-06T11:15:53.523Z,28.23
2023-02-06T11:16:53.859Z,28.31
2023-02-06T11:17:53.572Z,28.48
2023-02-06T11:18:53.597Z,28.52
2023-02-06T11:19:53.556Z,28.58
2023-02-06T11:20:55.736Z,28.70
2023-02-06T11:21:53.884Z,28.82
2023-02-06T11:22:53.916Z,28.87
2023-02-06T11:23:53.462Z,28.82
2023-02-06T11:24:53.467Z,28.96
2023-02-06T11:25:53.483Z,29.05
2023-02-06T11:26:53.540Z,29.19
2023-02-06T11:27:53.632Z,29.29
2023-02-06T11:28:53.696Z,29.36
2023-02-06T11:29:53.700Z,29.41
2023-02-06T11:30:53.785Z,29.53
2023-02-06T11:31:53.932Z,29.69
2023-02-06T11:33:04.043Z,29.62
2023-02-06T11:33:54.829Z,29.60
2023-02-06T11:34:53.814Z,29.88
2023-02-06T11:35:53.799Z,30.06
2023-02-06T11:36:54.357Z,30.25
2023-02-06T11:37:53.815Z,30.66
2023-02-06T11:38:53.773Z,30.77
2023-02-06T11:39:53.762Z,30.17
2023-02-06T11:40:53.766Z,28.78
2023-02-06T11:41:53.866Z,28.84
2023-02-06T11:42:53.748Z,27.82
2023-02-06T11:43:53.721Z,26.79
2023-02-06T11:44:53.744Z,26.67
2023-02-06T11:45:53.785Z,26.74
2023-02-06T11:46:53.800Z,26.74
2023-02-06T11:47:53.760Z,26.34
2023-02-06T11:48:53.855Z,26.57
2023-02-06T11:49:53.837Z,26.32
2023-02-06T11:50:53.918Z,26.35
2023-02-06T11:51:53.961Z,26.23
2023-02-06T11:52:53.972Z,26.15
2023-02-06T11:53:53.987Z,26.05
2023-02-06T11:54:54.010Z,26.04
2023-02-06T11:55:54.035Z,25.97
2023-02-06T11:56:54.082Z,25.67
2023-02-06T11:57:54.130Z,25.58
2023-02-06T11:58:54.137Z,25.28
2023-02-06T11:59:54.182Z,25.20
2023-02-06T12:00:54.245Z,25.06
2023-02-06T12:01:54.396Z,24.91
2023-02-06T12:02:54.325Z,24.81
2023-02-06T12:03:54.365Z,24.66
2023-02-06T12:04:54.409Z,24.77
2023-02-06T12:05:54.477Z,24.54
2023-02-06T12:06:54.536Z,24.65
2023-02-06T12:07:54.576Z,24.47
2023-02-06T12:08:54.583Z,24.34
2023-02-06T12:09:54.668Z,24.29
2023-02-06T12:10:54.770Z,24.20
2023-02-06T12:11:54.798Z,24.43
2023-02-06T12:12:54.816Z,24.16
2023-02-06T12:13:54.902Z,24.00
2023-02-06T12:14:54.925Z,23.87
2023-02-06T12:15:55.190Z,23.85
2023-02-06T12:16:55.486Z,23.66
2023-02-06T12:17:55.122Z,23.62
2023-02-06T12:18:55.149Z,23.51
2023-02-06T12:19:55.231Z,23.44
2023-02-06T12:20:55.277Z,23.54
2023-02-06T12:21:55.359Z,23.67
2023-02-06T12:22:55.383Z,23.64
2023-02-06T12:23:55.463Z,23.64
2023-02-06T12:24:55.540Z,23.56
2023-02-06T12:25:55.560Z,23.38
2023-02-06T12:26:55.622Z,23.20
2023-02-06T12:27:55.957Z,23.15
2023-02-06T12:28:55.707Z,23.65
2023-02-06T12:29:55.760Z,22.79
2023-02-06T12:30:55.875Z,22.38
2023-02-06T12:31:55.943Z,23.73
2023-02-06T12:32:55.889Z,24.27
2023-02-06T12:33:55.833Z,22.99
2023-02-06T12:34:55.801Z,22.59
2023-02-06T12:35:55.822Z,22.71
2023-02-06T12:36:55.820Z,22.82
2023-02-06T12:37:55.924Z,23.23
2023-02-06T12:38:55.834Z,23.33
2023-02-06T12:39:55.841Z,23.45
2023-02-06T12:40:55.881Z,23.43
2023-02-06T12:41:55.950Z,23.38
2023-02-06T12:42:56.003Z,23.34
2023-02-06T12:43:56.082Z,23.31
2023-02-06T12:44:56.076Z,23.32
2023-02-06T12:45:56.149Z,23.22
2023-02-06T12:46:56.126Z,23.20
2023-02-06T12:47:56.141Z,23.18
2023-02-06T12:48:56.171Z,23.15
2023-02-06T12:49:56.229Z,23.06
2023-02-06T12:50:56.254Z,23.09
2023-02-06T12:51:56.235Z,23.08
2023-02-06T12:52:56.313Z,23.01
2023-02-06T12:53:56.265Z,22.99
2023-02-06T12:54:56.343Z,22.93
2023-02-06T12:55:56.362Z,22.88
2023-02-06T12:56:56.404Z,22.83
2023-02-06T12:57:56.407Z,22.78
2023-02-06T12:58:56.429Z,22.75
2023-02-06T12:59:58.518Z,22.67
2023-02-06T13:00:56.490Z,22.64
2023-02-06T13:01:56.588Z,22.56
2023-02-06T13:02:56.624Z,22.53
2023-02-06T13:03:56.587Z,22.47
2023-02-06T13:04:56.577Z,22.48
2023-02-06T13:05:56.601Z,22.42
2023-02-06T13:06:56.639Z,22.35
2023-02-06T13:07:56.683Z,22.31
2023-02-06T13:08:56.648Z,22.22
2023-02-06T13:09:56.718Z,22.19
2023-02-06T13:10:56.700Z,22.17
2023-02-06T13:11:56.709Z,22.13
2023-02-06T13:12:56.731Z,22.08
2023-02-06T13:13:56.727Z,22.03
2023-02-06T13:14:56.725Z,22.02
2023-02-06T13:15:56.720Z,21.96
2023-02-06T13:16:56.708Z,21.89
2023-02-06T13:17:56.947Z,21.84
2023-02-06T13:18:56.701Z,21.81
2023-02-06T13:19:56.682Z,21.77
2023-02-06T13:20:56.669Z,21.73
2023-02-06T13:21:56.677Z,21.67
2023-02-06T13:22:56.679Z,21.64
2023-02-06T13:23:56.690Z,21.59
2023-02-06T13:24:56.654Z,21.47
2023-02-06T13:25:56.665Z,21.46
2023-02-06T13:26:56.629Z,21.46
2023-02-06T13:27:56.688Z,21.41
2023-02-06T13:28:56.663Z,21.37
2023-02-06T13:29:56.689Z,21.31
2023-02-06T13:30:56.731Z,21.27
2023-02-06T13:31:58.353Z,21.25
2023-02-06T13:33:56.635Z,21.20
2023-02-06T13:34:56.631Z,21.18
2023-02-06T13:35:56.616Z,21.12
2023-02-06T13:36:56.628Z,21.09
2023-02-06T13:37:56.610Z,21.07
2023-02-06T13:38:56.629Z,21.00
2023-02-06T13:39:56.598Z,20.99
2023-02-06T13:40:56.603Z,20.99
2023-02-06T13:41:56.585Z,20.94
2023-02-06T13:42:56.537Z,20.94
2023-02-06T13:43:56.575Z,20.89
2023-02-06T13:44:56.580Z,20.87
2023-02-06T13:45:56.576Z,20.79
2023-02-06T13:46:56.540Z,20.80
2023-02-06T13:47:56.546Z,20.76
2023-02-06T13:48:56.520Z,20.72
2023-02-06T13:49:56.515Z,20.67
2023-02-06T13:50:56.512Z,20.68
2023-02-06T13:51:56.503Z,20.67
2023-02-06T13:52:56.508Z,20.64
2023-02-06T13:53:56.476Z,20.61
2023-02-06T13:58:56.451Z,19.78
2023-02-06T13:59:56.449Z,19.34
2023-02-06T14:00:56.446Z,19.69
2023-02-06T14:01:56.472Z,19.40
2023-02-06T14:02:56.524Z,19.48
2023-02-06T14:03:56.448Z,19.90
2023-02-06T14:04:56.419Z,20.22
2023-02-06T14:05:56.409Z,20.33
2023-02-06T14:06:56.426Z,20.33
2023-02-06T14:07:56.377Z,20.39
2023-02-06T14:09:56.397Z,20.36
2023-02-06T14:10:56.360Z,20.34
2023-02-06T14:11:56.321Z,20.31
2023-02-06T14:12:56.362Z,20.28
2023-02-06T14:13:56.387Z,20.25
2023-02-06T14:14:56.325Z,20.22
2023-02-06T14:15:56.355Z,20.16
2023-02-06T14:16:56.324Z,20.14
2023-02-06T14:17:57.208Z,20.12
2023-02-06T14:18:56.303Z,20.12
2023-02-06T14:19:56.271Z,20.07
2023-02-06T14:20:56.276Z,20.05
2023-02-06T14:21:56.384Z,20.02
2023-02-06T14:22:56.280Z,19.78
2023-02-06T14:23:56.274Z,20.85
2023-02-06T14:24:56.277Z,23.17
2023-02-06T14:25:56.301Z,23.54
2023-02-06T14:26:56.291Z,22.57
2023-02-06T14:27:56.283Z,22.15
2023-02-06T14:28:56.257Z,21.73
2023-02-06T14:29:56.257Z,21.47
2023-02-06T14:30:56.245Z,20.96
2023-02-06T14:31:56.291Z,21.01
2023-02-06T14:32:56.243Z,21.16
2023-02-06T14:33:56.178Z,21.18
2023-02-06T14:34:56.159Z,21.25
2023-02-06T14:35:56.195Z,21.60
2023-02-06T14:36:56.160Z,21.60
2023-02-06T14:37:56.197Z,21.69
2023-02-06T14:38:56.167Z,21.82
2023-02-06T14:39:56.183Z,22.03
2023-02-06T14:40:56.142Z,22.15
2023-02-06T14:41:56.148Z,22.30
2023-02-06T14:42:56.159Z,22.32
2023-02-06T14:43:56.146Z,22.44
2023-02-06T14:44:56.113Z,22.57
2023-02-06T14:46:06.698Z,22.69
2023-02-06T14:46:57.147Z,22.79
2023-02-06T14:47:56.124Z,23.03
2023-02-06T14:48:56.111Z,23.05
2023-02-06T14:49:56.107Z,23.23
2023-02-06T14:50:56.620Z,23.26
2023-02-06T14:51:56.102Z,23.37
2023-02-06T14:52:56.092Z,23.45
2023-02-06T14:53:56.075Z,23.39
2023-02-06T14:54:56.072Z,23.26
2023-02-06T14:55:56.080Z,22.97
2023-02-06T14:56:56.024Z,23.00
2023-02-06T14:57:56.057Z,21.80
2023-02-06T14:59:55.997Z,22.57
2023-02-06T15:00:56.135Z,22.80
2023-02-06T15:01:56.129Z,22.90
2023-02-06T15:02:56.097Z,22.93
2023-02-06T15:03:56.161Z,22.33
2023-02-06T15:04:56.079Z,21.36
2023-02-06T16:14:58.162Z,22.08
2023-02-06T16:39:58.776Z,23.02
2023-02-06T17:15:00.025Z,22.56
2023-02-06T17:16:00.132Z,22.50
2023-02-06T17:17:00.052Z,22.35
2023-02-06T17:18:00.041Z,22.22
2023-02-06T17:19:00.080Z,22.06
2023-02-06T17:20:00.064Z,21.98
2023-02-06T17:21:00.046Z,21.93
2023-02-06T17:22:00.111Z,21.83
2023-02-06T17:23:00.129Z,21.73
2023-02-06T17:24:00.192Z,21.63
2023-02-06T17:25:00.255Z,21.60
2023-02-06T17:26:00.284Z,21.50
2023-02-06T17:27:00.372Z,21.50
2023-02-06T17:28:00.519Z,21.52
2023-02-06T17:29:00.489Z,21.34
2023-02-06T17:30:00.545Z,21.31
2023-02-06T17:31:00.727Z,21.34
2023-02-06T17:32:00.678Z,21.20
2023-02-06T17:33:00.725Z,21.14
2023-02-06T17:34:00.804Z,21.14
2023-02-06T17:35:00.858Z,21.00
2023-02-06T17:36:00.944Z,20.95
2023-02-06T17:37:00.987Z,20.96
2023-02-06T17:38:01.065Z,20.88
2023-02-06T17:39:01.106Z,20.82
2023-02-06T17:40:01.204Z,20.79
2023-02-06T17:41:01.184Z,20.71
2023-02-06T17:42:01.261Z,20.70
2023-02-06T17:43:03.702Z,20.63
2023-02-06T17:44:01.556Z,20.62
2023-02-06T17:45:01.607Z,20.60
2023-02-06T17:46:01.721Z,20.58
2023-02-06T17:47:01.726Z,20.56
2023-02-06T17:48:01.785Z,20.53
2023-02-06T17:49:01.794Z,20.57
2023-02-06T17:50:01.869Z,20.50
2023-02-06T17:51:01.909Z,20.36